Time;durP1;ratioP1;P1;durP2;ratioP2;P2;SDS_P1;SDS_P2;PMS_P1;PMS_P2;Temp;Humidity;BMP_temperature;BMP_pressure;BME280_temperature;BME280_humidity;BME280_pressure;Samples;Min_cycle;Max_cycle;Signal;HPM_P1;HPM_P2
2021/01/28 00:00:22;;;;;;;14.23;8.45;;;;;;;1.23;66.42;99618.00;5052523;28;20021;-74
2021/01/28 00:03:06;;;;;;;;;;;;;;;1.28;65.46;99620.53;5052650;28;20025;-75
2021/01/28 00:05:38;;;;;;;12.10;7.72;;;;;;;1.21;65.94;99614.66;5051385;28;19974;-75
2021/01/28 00:08:16;;;;;;;15.27;8.93;;;;;;;1.23;66.22;99624.69;5052938;28;20021;-75
2021/01/28 00:10:53;;;;;;;14.15;8.20;;;;;;;1.35;64.82;99632.22;5052164;28;20458;-75
2021/01/28 00:13:34;;;;;;;14.90;8.85;;;;;;;1.24;65.59;99622.19;5052224;28;20029;-74
2021/01/28 00:16:01;;;;;;;17.05;10.38;;;;;;;1.23;66.24;99630.53;5053030;28;20033;-74
2021/01/28 00:18:41;;;;;;;13.40;8.57;;;;;;;1.06;66.94;99632.13;5052080;28;20040;-74
2021/01/28 00:21:16;;;;;;;15.05;9.43;;;;;;;1.22;66.36;99635.53;5050632;28;20062;-74
2021/01/28 00:23:48;;;;;;;16.05;9.45;;;;;;;1.23;65.42;99627.19;5050752;28;20126;-73
2021/01/28 00:26:15;;;;;;;15.23;9.15;;;;;;;1.28;65.33;99633.88;5051978;28;20032;-74
2021/01/28 00:28:43;;;;;;;14.10;8.55;;;;;;;1.30;65.01;99638.88;5050748;28;20082;-74
2021/01/28 00:31:15;;;;;;;16.42;10.18;;;;;;;1.23;64.83;99643.03;5051777;28;20033;-74
2021/01/28 00:33:44;;;;;;;15.93;8.93;;;;;;;1.25;65.60;99643.88;5052237;28;20048;-74
2021/01/28 00:36:24;;;;;;;14.93;8.15;;;;;;;1.28;64.95;99646.41;5051492;28;20044;-74
2021/01/28 00:38:53;;;;;;;12.15;8.10;;;;;;;1.32;65.46;99649.75;5051920;28;20063;-74
2021/01/28 00:41:24;;;;;;;13.82;7.95;;;;;;;1.25;64.35;99633.84;5051794;28;20033;-74
2021/01/28 00:44:06;;;;;;;14.82;8.73;;;;;;;1.37;63.41;99643.06;5052322;28;20017;-74
2021/01/28 00:47:12;;;;;;;13.75;8.68;;;;;;;1.28;64.42;99648.91;5050523;28;20486;-73
2021/01/28 00:49:38;;;;;;;14.30;8.30;;;;;;;1.30;64.36;99649.75;5050491;28;20421;-74
2021/01/28 00:52:06;;;;;;;13.82;7.30;;;;;;;1.28;63.79;99643.91;5051693;28;20029;-74
2021/01/28 00:54:42;;;;;;;14.20;8.32;;;;;;;1.28;64.09;99633.88;5053144;28;20036;-74
2021/01/28 00:57:08;;;;;;;14.45;8.15;;;;;;;1.33;63.95;99653.91;5053554;28;20032;-74
2021/01/28 00:59:35;;;;;;;14.93;8.48;;;;;;;1.20;63.71;99638.03;5053328;28;20410;-74
2021/01/28 01:02:03;;;;;;;14.50;7.55;;;;;;;1.27;63.62;99643.91;5054254;28;20029;-74
2021/01/28 01:04:36;;;;;;;13.52;7.85;;;;;;;1.31;63.19;99645.56;5054600;28;20083;-74
2021/01/28 01:07:01;;;;;;;14.25;8.23;;;;;;;1.28;63.21;99648.91;5054453;28;20031;-74
2021/01/28 01:09:28;;;;;;;14.27;8.68;;;;;;;1.20;63.08;99635.53;5053546;28;20021;-73
2021/01/28 01:12:05;;;;;;;13.40;7.80;;;;;;;1.26;62.73;99627.19;5051450;28;20079;-74
2021/01/28 01:14:36;;;;;;;13.57;7.47;;;;;;;1.31;62.55;99638.88;5051691;28;20029;-73
2021/01/28 01:17:09;;;;;;;12.95;7.80;;;;;;;1.28;63.04;99630.53;5051677;28;20512;-74
2021/01/28 01:19:36;;;;;;;13.48;7.80;;;;;;;1.26;62.45;99637.22;5051295;28;20409;-74
2021/01/28 01:22:03;;;;;;;12.02;7.32;;;;;;;1.36;63.27;99634.75;5051283;28;20053;-74
2021/01/28 01:24:37;;;;;;;11.98;7.60;;;;;;;1.28;63.25;99628.88;5051272;28;20033;-74
2021/01/28 01:27:13;;;;;;;14.43;8.25;;;;;;;1.24;62.62;99636.38;5051478;28;20021;-74
2021/01/28 01:29:47;;;;;;;14.30;7.90;;;;;;;1.32;61.79;99642.25;5051441;28;20029;-74
2021/01/28 01:32:12;;;;;;;13.25;7.78;;;;;;;1.39;62.77;99639.75;5051541;28;20086;-74
2021/01/28 01:34:38;;;;;;;12.88;7.10;;;;;;;1.27;62.60;99631.38;5050804;28;20545;-74
2021/01/28 01:37:03;;;;;;;12.68;7.60;;;;;;;1.24;62.87;99624.69;5051021;28;20409;-75
2021/01/28 01:39:35;;;;;;;11.75;7.22;;;;;;;1.31;63.42;99630.53;5051613;28;20485;-74
2021/01/28 01:42:09;;;;;;;;;;;;;;;1.30;63.69;99629.72;5051510;28;20569;-74
2021/01/28 01:44:34;;;;;;;10.82;6.63;;;;;;;1.28;62.23;99636.38;5051278;28;19971;-74
2021/01/28 01:47:55;;;;;;;13.60;7.85;;;;;;;1.33;62.40;99633.88;5051129;28;20024;-74
2021/01/28 01:50:57;;;;;;;12.35;7.40;;;;;;;1.24;63.21;99633.88;5051201;28;20060;-74
2021/01/28 01:53:44;;;;;;;13.40;8.05;;;;;;;0.97;64.50;99594.53;5051813;28;20033;-74
2021/01/28 01:56:29;;;;;;;13.25;8.50;;;;;;;1.25;63.12;99638.06;5050154;28;20029;-74
2021/01/28 01:59:48;;;;;;;14.38;7.82;;;;;;;1.25;63.49;99646.38;5049844;28;20045;-74
2021/01/28 02:02:17;;;;;;;12.98;7.47;;;;;;;1.18;64.07;99646.34;5027787;28;20094;-75
2021/01/28 02:04:57;;;;;;;12.80;7.38;;;;;;;1.16;62.99;99635.50;5050791;28;20035;-74
2021/01/28 02:07:27;;;;;;;12.40;7.45;;;;;;;1.18;62.83;99638.84;5051372;28;20425;-74
2021/01/28 02:10:00;;;;;;;15.43;8.10;;;;;;;1.14;62.62;99644.66;5054544;28;20031;-74
2021/01/28 02:12:34;;;;;;;14.93;8.80;;;;;;;1.16;62.76;99646.34;5053265;28;20036;-75
2021/01/28 02:15:24;;;;;;;13.23;8.00;;;;;;;1.12;64.38;99656.34;5053546;28;20032;-75
2021/01/28 02:18:01;;;;;;;13.52;7.53;;;;;;;1.12;63.70;99661.34;5054746;28;20033;-74
2021/01/28 02:20:55;;;;;;;12.40;7.78;;;;;;;1.09;62.87;99652.16;5053256;28;20029;-74
2021/01/28 02:24:06;;;;;;;13.73;8.43;;;;;;;1.16;63.25;99676.38;5054465;28;20032;-75
2021/01/28 02:26:32;;;;;;;13.70;8.45;;;;;;;1.09;64.41;99674.66;5054401;28;20094;-74
2021/01/28 02:29:06;;;;;;;14.43;8.57;;;;;;;1.19;63.21;99675.56;5054459;28;20075;-75
2021/01/28 02:31:48;;;;;;;15.65;9.10;;;;;;;-0.30;71.24;99687.78;5054298;28;20572;-75
2021/01/28 02:34:14;;;;;;;13.80;8.70;;;;;;;-0.24;72.16;99678.66;5053914;28;20103;-75
2021/01/28 02:36:44;;;;;;;15.30;9.15;;;;;;;-0.41;73.56;99671.81;5054194;28;20032;-75
2021/01/28 02:39:28;;;;;;;14.82;8.57;;;;;;;0.25;72.52;99681.63;5054135;28;20029;-75
2021/01/28 02:42:16;;;;;;;15.23;8.82;;;;;;;0.11;72.59;99691.50;5052825;28;20120;-75
2021/01/28 02:44:47;;;;;;;16.67;9.82;;;;;;;-0.18;73.50;99686.22;5053936;28;20039;-75
2021/01/28 02:47:13;;;;;;;18.33;10.40;;;;;;;-0.41;74.57;99687.66;5052769;28;20032;-75
2021/01/28 02:49:51;;;;;;;15.35;9.63;;;;;;;-0.55;74.90;99696.63;5052677;28;20033;-74
2021/01/28 02:52:29;;;;;;;15.52;9.25;;;;;;;-0.55;74.59;99681.66;5053668;28;20037;-75
2021/01/28 02:55:07;;;;;;;16.48;9.13;;;;;;;-0.46;74.87;99691.78;5053906;28;20036;-75
2021/01/28 02:57:36;;;;;;;13.93;8.20;;;;;;;-0.35;73.92;99695.19;5052528;28;20060;-74
2021/01/28 03:00:29;;;;;;;13.10;8.23;;;;;;;-0.46;74.94;99696.75;5053077;28;20033;-74
2021/01/28 03:03:10;;;;;;;15.75;8.65;;;;;;;-0.49;75.64;99690.88;5053346;28;20482;-74
2021/01/28 03:05:37;;;;;;;14.23;8.98;;;;;;;-0.29;74.90;99686.94;5053854;28;20082;-75
2021/01/28 03:08:20;;;;;;;16.33;9.40;;;;;;;-0.22;74.58;99692.00;5052463;28;20029;-75
2021/01/28 03:11:04;;;;;;;16.27;9.80;;;;;;;-0.22;73.29;99692.00;5053513;28;20032;-75
2021/01/28 03:13:43;;;;;;;15.45;8.40;;;;;;;0.21;71.77;99689.91;5053351;28;20018;-75
2021/01/28 03:16:10;;;;;;;17.00;9.63;;;;;;;0.34;70.82;99685.03;5053426;28;20124;-75
2021/01/28 03:18:39;;;;;;;20.13;10.70;;;;;;;0.43;71.49;99685.13;5052557;28;20021;-75
2021/01/28 03:21:14;;;;;;;28.10;15.35;;;;;;;0.15;71.14;99694.84;5051982;28;20525;-75
2021/01/28 03:23:54;;;;;;;28.73;14.88;;;;;;;0.29;71.65;99695.81;5053318;28;20025;-75
2021/01/28 03:26:55;;;;;;;23.17;11.95;;;;;;;-0.20;73.36;99702.03;5053467;28;20040;-75
2021/01/28 03:29:37;;;;;;;18.90;10.55;;;;;;;-0.40;74.97;99691.84;5052355;28;20067;-74
2021/01/28 03:32:15;;;;;;;19.33;10.38;;;;;;;-0.18;74.45;99708.69;5053235;28;20029;-75
2021/01/28 03:34:41;;;;;;;17.13;9.68;;;;;;;-0.51;75.63;99693.34;5052660;28;20110;-74
2021/01/28 03:37:07;;;;;;;17.75;10.30;;;;;;;-0.41;75.11;99710.13;5053289;28;20025;-75
2021/01/28 03:39:36;;;;;;;17.55;9.55;;;;;;;-0.30;75.03;99707.75;5035297;28;20071;-74
2021/01/28 03:42:37;;;;;;;18.33;10.23;;;;;;;-0.46;75.74;99710.88;5035075;28;20504;-75
2021/01/28 03:45:17;;;;;;;19.25;11.27;;;;;;;-0.33;75.86;99710.19;5052725;28;20039;-75
2021/01/28 03:48:01;;;;;;;29.63;20.98;;;;;;;-0.44;74.11;99705.09;5052745;28;20044;-74
2021/01/28 03:50:35;;;;;;;38.97;24.40;;;;;;;-0.51;74.75;99707.47;5052873;28;20048;-75
2021/01/28 03:56:22;;;;;;;36.47;24.27;;;;;;;-0.67;76.59;99701.47;5051353;28;20098;-75
2021/01/28 03:59:00;;;;;;;35.97;24.70;;;;;;;-0.37;75.95;99706.00;5027682;28;20021;-75
2021/01/28 04:01:36;;;;;;;20.80;13.57;;;;;;;-0.32;74.37;99692.72;5052563;28;20516;-75
2021/01/28 04:04:02;;;;;;;17.25;11.40;;;;;;;-0.62;75.10;99676.59;5052498;28;20485;-75
2021/01/28 04:09:54;;;;;;;18.95;11.50;;;;;;;-0.60;74.57;99707.38;5052581;28;20044;-74
2021/01/28 04:12:23;;;;;;;20.15;11.60;;;;;;;-0.39;76.32;99710.13;5034547;28;20039;-75
2021/01/28 04:15:26;;;;;;;19.50;11.85;;;;;;;-0.37;75.25;99729.28;5034676;28;20028;-75
2021/01/28 04:18:16;;;;;;;19.08;12.05;;;;;;;-0.22;74.71;99721.97;5052030;28;20040;-76
2021/01/28 04:20:42;;;;;;;21.65;12.30;;;;;;;-0.09;72.99;99713.81;5055153;28;20021;-76
2021/01/28 04:23:24;;;;;;;23.73;12.85;;;;;;;-0.11;71.67;99714.59;5056177;28;20115;-74
2021/01/28 04:26:05;;;;;;;24.17;12.98;;;;;;;-0.04;72.57;99726.34;5052266;28;20387;-74
2021/01/28 04:28:44;;;;;;;22.83;12.18;;;;;;;0.00;71.20;99731.38;5048757;28;20064;-77
2021/01/28 04:31:27;;;;;;;21.70;12.60;;;;;;;-0.08;74.18;99737.13;5033931;28;20029;-75
2021/01/28 04:33:53;;;;;;;20.42;11.65;;;;;;;-0.20;74.23;99732.81;5051221;28;20029;-77
2021/01/28 04:36:26;;;;;;;18.58;10.77;;;;;;;-0.23;73.89;99731.94;5051584;28;20044;-75
2021/01/28 04:38:53;;;;;;;18.58;10.43;;;;;;;-0.34;74.27;99736.84;5033923;28;20051;-74
2021/01/28 04:41:22;;;;;;;20.63;11.13;;;;;;;0.00;74.33;99738.84;5051190;28;20557;-76
2021/01/28 04:43:50;;;;;;;20.60;11.85;;;;;;;-0.10;73.31;99738.75;5034014;28;20494;-75
2021/01/28 04:46:28;;;;;;;22.67;12.60;;;;;;;0.11;71.88;99736.47;5033698;28;20508;-74
2021/01/28 04:49:12;;;;;;;23.08;11.88;;;;;;;0.11;72.96;99743.97;5032938;28;20122;-74
2021/01/28 04:51:42;;;;;;;23.60;14.00;;;;;;;-0.06;72.91;99745.47;5051675;28;20560;-75
2021/01/28 04:54:32;;;;;;;23.35;13.35;;;;;;;-0.27;73.07;99733.56;5033695;28;20510;-74
2021/01/28 04:57:04;;;;;;;21.15;12.65;;;;;;;-0.38;74.08;99734.28;5032742;28;20048;-75
2021/01/28 04:59:35;;;;;;;19.48;12.30;;;;;;;-0.34;74.35;99750.97;5034093;28;20029;-75
2021/01/28 05:02:07;;;;;;;21.55;12.40;;;;;;;-0.38;75.46;99752.59;5033915;28;20056;-75
2021/01/28 05:05:01;;;;;;;18.20;11.05;;;;;;;-0.31;74.40;99764.31;5032426;28;20040;-76
2021/01/28 05:07:46;;;;;;;19.35;11.73;;;;;;;-0.35;75.43;99766.75;5033415;28;20041;-76
2021/01/28 05:10:26;;;;;;;15.45;9.88;;;;;;;-0.32;74.14;99761.81;5033404;28;20413;-77
2021/01/28 05:13:05;;;;;;;18.42;11.27;;;;;;;-0.57;74.19;99745.69;5033220;28;20132;-75
2021/01/28 05:15:41;;;;;;;18.40;10.30;;;;;;;-0.35;74.77;99769.25;5051430;28;20029;-75
2021/01/28 05:18:35;;;;;;;15.45;9.32;;;;;;;-0.60;75.41;99774.75;5051021;28;20025;-75
2021/01/28 05:21:39;;;;;;;17.33;10.10;;;;;;;-0.60;75.10;99774.75;5048258;28;20048;-76
2021/01/28 05:24:22;;;;;;;26.85;14.10;;;;;;;-0.56;75.66;99774.84;5031234;28;20091;-75
2021/01/28 05:26:51;;;;;;;25.90;15.82;;;;;;;-0.65;75.00;99774.69;5050908;28;20481;-75
2021/01/28 05:29:38;;;;;;;19.98;12.20;;;;;;;-0.69;74.34;99770.47;5051140;28;20029;-75
2021/01/28 05:32:13;;;;;;;17.88;10.90;;;;;;;-0.80;74.67;99733.75;5032775;28;20035;-75
2021/01/28 05:34:39;;;;;;;18.35;11.10;;;;;;;-0.87;75.55;99748.63;5032792;28;20045;-81
2021/01/28 05:37:21;;;;;;;18.45;11.18;;;;;;;-0.89;75.09;99735.28;5033963;28;20043;-78
2021/01/28 05:40:13;;;;;;;20.23;11.68;;;;;;;-0.65;75.42;99773.88;5061303;28;20032;-77
2021/01/28 05:42:43;;;;;;;13.98;8.20;;;;;;;-0.92;75.90;99779.31;5036303;28;20300;-76
2021/01/28 05:45:43;;;;;;;23.88;11.40;;;;;;;-0.68;74.93;99787.16;5037924;28;20029;-79
2021/01/28 05:48:44;;;;;;;22.77;12.52;;;;;;;-0.64;75.54;99791.38;5044764;28;20104;-76
2021/01/28 05:51:22;;;;;;;22.67;13.27;;;;;;;-0.31;74.78;99781.81;5046505;28;20064;-75
2021/01/28 05:54:24;;;;;;;22.02;13.18;;;;;;;-0.28;73.33;99791.81;5040659;28;20033;-76
2021/01/28 05:56:58;;;;;;;26.02;14.07;;;;;;;-0.33;74.43;99792.56;5057475;28;20249;-76
2021/01/28 06:00:16;;;;;;;25.58;13.25;;;;;;;-0.38;74.13;99787.56;5057478;28;20040;-76
2021/01/28 06:03:19;;;;;;;23.17;13.57;;;;;;;-0.01;71.98;99787.16;5036941;28;20029;-76
2021/01/28 06:09:47;;;;;;;32.70;18.35;;;;;;;1.10;69.33;99790.63;5055031;28;20135;-77
2021/01/28 06:15:46;;;;;;;24.35;13.80;;;;;;;1.00;68.99;99788.88;5054764;28;20083;-76
2021/01/28 06:21:57;;;;;;;33.70;18.42;;;;;;;0.27;72.48;99798.28;5054794;28;20560;-76
2021/01/28 06:24:47;;;;;;;40.95;25.05;;;;;;;1.25;68.22;99803.25;5054567;28;20029;-75
2021/01/28 06:27:51;;;;;;;46.95;27.92;;;;;;;2.07;65.54;99791.94;5054405;28;20029;-76
2021/01/28 06:33:41;;;;;;;61.67;29.93;;;;;;;0.76;70.27;99817.06;5054285;28;20044;-76
2021/01/28 06:36:37;;;;;;;79.75;38.08;;;;;;;0.61;70.77;99809.44;5053732;28;20052;-76
2021/01/28 06:49:10;;;;;;;58.47;30.02;;;;;;;2.27;64.59;99775.28;5054179;28;20130;-77
2021/01/28 06:55:16;;;;;;;22.43;12.73;;;;;;;1.22;68.26;99805.72;5053274;28;20131;-77
2021/01/28 06:58:11;;;;;;;19.65;11.88;;;;;;;1.09;69.09;99804.78;5045443;28;20029;-76
2021/01/28 07:04:48;;;;;;;26.58;14.52;;;;;;;2.23;65.43;99823.72;5053941;28;20100;-76
2021/01/28 07:07:20;;;;;;;25.42;14.45;;;;;;;1.37;67.59;99836.69;5053736;28;20043;-75
2021/01/28 07:09:58;;;;;;;26.60;14.75;;;;;;;1.04;69.03;99845.63;5035903;28;20036;-76
2021/01/28 07:15:54;;;;;;;22.40;13.23;;;;;;;1.29;67.86;99843.31;5053933;28;20051;-76
2021/01/28 07:18:58;;;;;;;26.73;15.95;;;;;;;1.09;68.98;99854.03;5053264;28;20025;-76
2021/01/28 07:21:54;;;;;;;26.15;14.88;;;;;;;1.46;66.79;99844.28;5053330;28;20036;-77
2021/01/28 07:28:13;;;;;;;28.55;15.75;;;;;;;1.36;67.28;99849.22;5053824;28;20470;-77
2021/01/28 07:41:10;;;;;;;23.63;14.13;;;;;;;1.95;66.30;99847.03;5053193;28;20040;-77
2021/01/28 07:44:14;;;;;;;25.35;16.25;;;;;;;2.22;65.42;99849.66;5053051;28;20040;-77
2021/01/28 07:46:41;;;;;;;28.42;15.18;;;;;;;2.33;65.47;99845.50;5052786;28;20033;-75
2021/01/28 07:49:30;;;;;;;24.85;14.48;;;;;;;1.91;67.71;99847.84;5052835;28;20107;-76
2021/01/28 07:52:34;;;;;;;18.80;11.93;;;;;;;2.39;65.34;99848.03;5034998;28;20032;-76
2021/01/28 07:58:36;;;;;;;21.70;12.18;;;;;;;2.58;65.45;99849.72;5053321;28;20047;-76
2021/01/28 08:01:17;;;;;;;22.13;12.90;;;;;;;2.86;63.89;99848.94;5034841;28;20036;-76
2021/01/28 08:07:08;;;;;;;36.50;19.67;;;;;;;2.83;64.83;99860.63;5052609;28;20109;-76
2021/01/28 08:16:10;;;;;;;28.38;16.92;;;;;;;2.85;62.58;99862.31;5052713;28;20052;-77
2021/01/28 08:18:43;;;;;;;39.85;25.83;;;;;;;2.96;63.73;99865.66;5035796;28;20032;-78
2021/01/28 08:21:13;;;;;;;18.58;11.20;;;;;;;3.01;61.76;99858.16;5037477;28;20035;-76
2021/01/28 08:27:34;;;;;;;21.20;12.40;;;;;;;3.59;60.04;99861.44;5052135;28;20032;-76
2021/01/28 08:30:33;;;;;;;26.60;15.15;;;;;;;3.06;61.36;99862.31;5052078;28;20041;-77
2021/01/28 08:33:06;;;;;;;23.73;14.98;;;;;;;3.33;61.62;99854.78;5051978;28;20084;-76
2021/01/28 08:35:39;;;;;;;29.67;17.40;;;;;;;2.80;63.12;99863.97;5034023;28;20029;-75
2021/01/28 08:38:21;;;;;;;26.58;14.50;;;;;;;3.05;62.96;99869.88;5052153;28;20468;-75
2021/01/28 08:41:27;;;;;;;22.13;12.93;;;;;;;3.34;62.27;99868.19;5051721;28;20056;-76
2021/01/28 08:44:14;;;;;;;24.85;13.82;;;;;;;3.42;62.70;99869.00;5034067;28;20043;-75
2021/01/28 08:47:24;;;;;;;29.90;15.43;;;;;;;3.96;60.90;99866.34;5051950;28;20040;-75
2021/01/28 08:50:24;;;;;;;28.40;16.25;;;;;;;3.42;61.05;99877.38;5034043;28;20087;-75
2021/01/28 08:53:29;;;;;;;23.90;14.88;;;;;;;3.50;63.10;99878.22;5036358;28;20036;-75
2021/01/28 08:56:20;;;;;;;22.40;12.60;;;;;;;2.73;62.97;99839.72;5051634;28;20036;-75
2021/01/28 08:59:36;;;;;;;25.63;15.32;;;;;;;3.54;62.25;99879.03;5033799;28;20052;-75
2021/01/28 09:02:50;;;;;;;26.90;16.48;;;;;;;4.24;61.62;99872.09;5033735;28;20049;-76
2021/01/28 09:08:39;;;;;;;33.67;19.75;;;;;;;3.77;61.83;99876.47;5052091;28;20051;-76
2021/01/28 09:14:35;;;;;;;29.93;17.10;;;;;;;4.05;62.38;99873.03;5051962;28;20093;-76
2021/01/28 09:17:38;;;;;;;21.23;14.13;;;;;;;4.01;63.78;99868.84;5034963;28;20255;-77
2021/01/28 09:27:03;;;;;;;26.37;15.27;;;;;;;3.67;64.54;99853.03;5050885;28;20221;-76
2021/01/28 09:29:54;;;;;;;36.07;18.57;;;;;;;3.48;64.76;99882.41;5036528;28;20037;-75
2021/01/28 09:32:50;;;;;;;34.55;21.27;;;;;;;3.40;64.33;99876.56;5055350;28;20037;-75
2021/01/28 09:35:53;;;;;;;26.33;16.63;;;;;;;3.23;64.42;99875.72;5037758;28;20037;-75
2021/01/28 09:38:31;;;;;;;24.60;14.82;;;;;;;2.84;64.94;99823.00;5017746;28;20042;-76
2021/01/28 09:41:25;;;;;;;25.33;15.98;;;;;;;2.95;66.05;99883.25;5035197;28;20116;-76
2021/01/28 09:44:33;;;;;;;27.38;15.23;;;;;;;2.77;65.48;99886.56;5038189;28;20033;-75
2021/01/28 09:47:38;;;;;;;22.27;13.98;;;;;;;2.57;64.54;99873.16;5034907;28;20025;-75
2021/01/28 09:50:10;;;;;;;27.02;16.15;;;;;;;2.36;64.94;99868.06;5017604;28;20037;-75
2021/01/28 09:55:57;;;;;;;22.00;12.20;;;;;;;2.72;63.60;99859.78;5035361;28;20056;-76
2021/01/28 09:58:53;;;;;;;22.92;13.98;;;;;;;3.15;62.28;99853.97;5035627;28;20029;-76
2021/01/28 10:01:24;;;;;;;20.60;13.13;;;;;;;3.32;62.54;99837.19;5017516;28;20029;-75
2021/01/28 10:07:12;;;;;;;24.08;13.75;;;;;;;4.01;60.73;99846.22;5038475;28;20040;-77
2021/01/28 10:09:39;;;;;;;21.05;13.23;;;;;;;3.99;60.79;99841.22;5039513;28;20026;-77
2021/01/28 10:12:05;;;;;;;19.75;12.55;;;;;;;4.63;61.73;99840.88;5041326;28;20029;-77
2021/01/28 10:14:41;;;;;;;25.65;14.57;;;;;;;4.63;61.55;99819.06;5025430;28;20178;-77
2021/01/28 10:17:44;;;;;;;20.13;12.60;;;;;;;4.09;62.03;99822.72;5024330;28;20030;-78
2021/01/28 10:20:13;;;;;;;21.98;13.70;;;;;;;3.91;63.06;99820.28;5046457;28;20429;-81
2021/01/28 10:22:41;;;;;;;20.80;13.25;;;;;;;3.93;61.27;99833.69;5057053;28;20128;-81
2021/01/28 10:25:11;;;;;;;24.60;14.07;;;;;;;4.14;62.39;99841.13;5023567;28;20033;-77
2021/01/28 10:27:50;;;;;;;26.67;13.80;;;;;;;4.20;62.51;99831.03;5035962;28;20052;-91
2021/01/28 10:30:31;;;;;;;23.77;14.10;;;;;;;4.26;66.25;99830.16;5017454;28;20091;-77
2021/01/28 10:33:06;;;;;;;29.02;15.98;;;;;;;4.62;60.55;99822.41;5034473;28;20517;-78
2021/01/28 10:35:33;;;;;;;29.50;17.30;;;;;;;4.23;61.92;99822.66;5017417;28;20405;-77
2021/01/28 10:38:07;;;;;;;25.30;14.25;;;;;;;4.48;59.87;99826.69;5052393;28;20056;-78
2021/01/28 10:40:35;;;;;;;32.72;16.02;;;;;;;4.56;60.92;99819.09;5036706;28;20029;-80
2021/01/28 10:43:09;;;;;;;24.67;14.98;;;;;;;5.02;56.87;99806.16;5036794;28;20040;-76
2021/01/28 10:46:09;;;;;;;20.48;13.50;;;;;;;5.04;62.17;99821.25;5036718;28;20025;-77
2021/01/28 10:48:36;;;;;;;22.42;13.57;;;;;;;5.05;56.22;99806.13;5036464;28;20099;-78
2021/01/28 10:51:04;;;;;;;24.30;14.90;;;;;;;4.99;56.43;99817.97;5036203;28;20033;-78
2021/01/28 10:53:49;;;;;;;23.00;15.38;;;;;;;4.98;54.50;99818.78;5054196;28;20041;-77
2021/01/28 10:56:15;;;;;;;24.98;16.42;;;;;;;5.29;55.71;99817.66;5069832;28;20108;-79
2021/01/28 10:58:46;;;;;;;26.45;17.65;;;;;;;4.65;58.38;99817.38;5053995;28;20041;-78
2021/01/28 11:01:49;;;;;;;21.35;13.70;;;;;;;5.26;57.11;99816.03;5053910;28;20017;-76
2021/01/28 11:04:18;;;;;;;23.25;14.05;;;;;;;4.96;57.12;99812.94;5035597;28;20584;-77
2021/01/28 11:06:46;;;;;;;22.02;13.13;;;;;;;5.05;56.50;99806.13;5062927;28;20032;-77
2021/01/28 11:09:29;;;;;;;39.38;22.65;;;;;;;5.33;57.86;99800.84;5054995;28;20028;-78
2021/01/28 11:12:43;;;;;;;22.67;13.10;;;;;;;4.87;55.98;99802.94;5053711;28;20024;-79
2021/01/28 11:15:45;;;;;;;20.77;13.15;;;;;;;5.50;55.56;99792.25;5053973;28;20037;-77
2021/01/28 11:18:26;;;;;;;19.73;12.15;;;;;;;4.86;56.21;99779.44;5053572;28;20033;-78
2021/01/28 11:21:24;;;;;;;20.27;13.27;;;;;;;4.98;57.41;99791.94;5035941;28;20055;-78
2021/01/28 11:24:28;;;;;;;23.15;14.27;;;;;;;5.40;56.44;99788.16;5053704;28;20267;-77
2021/01/28 11:27:28;;;;;;;27.50;16.15;;;;;;;5.95;53.60;99785.88;5035862;28;20041;-78
2021/01/28 11:30:23;;;;;;;23.58;14.52;;;;;;;5.86;53.96;99784.28;5053330;28;20091;-77
2021/01/28 11:33:09;;;;;;;22.33;14.18;;;;;;;5.22;55.27;99785.84;5035825;28;20037;-78
2021/01/28 11:36:18;;;;;;;21.83;13.27;;;;;;;5.70;55.38;99785.31;5053711;28;20025;-78
2021/01/28 11:39:10;;;;;;;22.13;13.13;;;;;;;5.49;55.21;99784.69;5033228;28;20061;-79
2021/01/28 11:44:57;;;;;;;24.90;15.00;;;;;;;5.45;54.97;99778.06;5033619;28;20044;-80
2021/01/28 11:50:44;;;;;;;30.50;19.00;;;;;;;5.13;58.17;99770.81;5033382;28;20047;-77
2021/01/28 11:59:53;;;;;;;17.40;9.90;;;;;;;4.81;59.27;99775.28;5033557;28;20090;-80
2021/01/28 12:02:56;;;;;;;27.70;16.58;;;;;;;5.45;58.18;99785.63;5015584;28;20120;-79
2021/01/28 12:08:43;;;;;;;27.23;16.73;;;;;;;4.82;59.07;99784.50;5033086;28;20040;-78
2021/01/28 12:11:09;;;;;;;28.13;16.25;;;;;;;5.14;60.64;99755.69;5031773;28;20034;-78
2021/01/28 12:13:36;;;;;;;40.00;21.83;;;;;;;5.40;59.20;99777.25;5032729;28;20033;-78
2021/01/28 12:19:52;;;;;;;17.17;10.77;;;;;;;4.93;57.59;99787.78;5033102;28;20094;-80
2021/01/28 12:22:53;;;;;;;28.33;14.90;;;;;;;5.29;56.96;99785.75;5032697;28;20033;-79
2021/01/28 12:25:22;;;;;;;20.90;13.68;;;;;;;5.21;58.06;99779.94;5015412;28;20101;-78
2021/01/28 12:28:09;;;;;;;24.15;14.38;;;;;;;5.22;56.03;99776.59;5048700;28;20057;-78
2021/01/28 12:30:39;;;;;;;22.33;14.02;;;;;;;5.25;55.92;99771.50;5058713;28;20041;-77
2021/01/28 12:33:07;;;;;;;23.73;14.80;;;;;;;5.11;57.67;99788.44;5014938;28;20048;-77
2021/01/28 12:35:41;;;;;;;21.52;14.18;;;;;;;4.54;58.14;99788.91;5014838;28;20029;-77
2021/01/28 12:38:36;;;;;;;24.92;16.83;;;;;;;5.04;57.91;99789.34;5028467;28;20085;-76
2021/01/28 12:44:24;;;;;;;28.27;18.70;;;;;;;5.13;59.62;99798.53;5033024;28;20045;-78
2021/01/28 12:47:41;;;;;;;23.42;16.92;;;;;;;4.77;60.19;99803.84;5030920;28;20514;-77
2021/01/28 12:50:27;;;;;;;22.25;14.07;;;;;;;4.46;60.47;99803.22;5031132;28;20120;-78
2021/01/28 12:53:24;;;;;;;33.50;20.35;;;;;;;4.77;59.72;99802.19;5031662;28;20033;-79
2021/01/28 12:55:59;;;;;;;33.13;19.63;;;;;;;4.82;59.54;99797.94;5032276;28;20057;-79
2021/01/28 12:58:28;;;;;;;29.55;17.20;;;;;;;4.70;60.54;99785.44;5031514;28;20136;-79
2021/01/28 13:01:35;;;;;;;24.52;14.50;;;;;;;4.53;60.53;99809.06;5031402;28;20022;-79
2021/01/28 13:04:11;;;;;;;20.73;13.35;;;;;;;4.40;59.56;99808.28;5031679;28;20457;-78
2021/01/28 13:06:36;;;;;;;30.67;17.83;;;;;;;4.97;59.13;99797.81;5032242;28;20030;-78
2021/01/28 13:09:11;;;;;;;32.95;19.98;;;;;;;5.34;58.04;99800.84;5031566;28;20037;-78
2021/01/28 13:14:59;;;;;;;21.13;13.20;;;;;;;5.55;56.23;99804.78;5031966;28;20607;-78
2021/01/28 13:17:43;;;;;;;18.15;11.77;;;;;;;5.23;56.15;99800.09;5031733;28;20025;-78
2021/01/28 13:23:30;;;;;;;33.90;21.57;;;;;;;5.33;56.01;99783.22;5031902;28;20529;-78
2021/01/28 13:26:04;;;;;;;29.75;19.23;;;;;;;4.99;56.91;99763.34;5030808;28;20025;-78
2021/01/28 13:28:49;;;;;;;28.27;17.55;;;;;;;5.45;56.00;99800.72;5030516;28;20525;-78
2021/01/28 13:32:03;;;;;;;24.25;15.75;;;;;;;4.95;56.49;99807.03;5031659;28;20025;-78
2021/01/28 13:34:29;;;;;;;19.45;12.57;;;;;;;5.07;56.29;99801.91;5031785;28;20037;-78
2021/01/28 13:36:54;;;;;;;16.73;12.13;;;;;;;4.98;55.73;99796.97;5032739;28;20053;-77
2021/01/28 13:42:41;;;;;;;30.02;17.48;;;;;;;5.76;55.97;99797.03;5031683;28;20039;-78
2021/01/28 13:45:38;;;;;;;22.13;14.85;;;;;;;5.39;55.68;99803.31;5031316;28;20100;-78
2021/01/28 13:51:51;;;;;;;13.48;9.98;;;;;;;4.88;56.06;99802.94;5031769;28;20049;-78
2021/01/28 13:54:27;;;;;;;21.13;13.43;;;;;;;4.63;57.73;99809.00;5024432;28;20025;-78
2021/01/28 13:57:04;;;;;;;25.60;15.07;;;;;;;4.50;58.60;99799.03;5031665;28;20182;-78
2021/01/28 13:59:31;;;;;;;31.48;18.13;;;;;;;4.31;58.26;99795.78;5013888;28;20560;-77
2021/01/28 14:02:05;;;;;;;33.80;19.83;;;;;;;4.31;58.62;99788.22;5013753;28;20047;-78
2021/01/28 14:04:34;;;;;;;24.63;14.77;;;;;;;3.96;59.39;99782.56;5017163;28;20064;-77
2021/01/28 14:07:29;;;;;;;30.05;20.38;;;;;;;4.21;59.76;99800.03;5035459;28;20060;-78
2021/01/28 14:10:00;;;;;;;25.85;16.27;;;;;;;4.26;60.27;99792.44;5017682;28;20039;-78
2021/01/28 14:12:27;;;;;;;32.20;21.38;;;;;;;4.18;61.11;99796.72;5035002;28;20064;-77
2021/01/28 14:15:34;;;;;;;39.08;23.80;;;;;;;3.97;60.92;99786.72;5034912;28;20087;-77
2021/01/28 14:18:11;;;;;;;36.30;23.45;;;;;;;3.97;61.42;99796.78;5034863;28;20025;-78
2021/01/28 14:21:05;;;;;;;30.85;20.55;;;;;;;3.94;61.66;99802.66;5017395;28;20080;-78
2021/01/28 14:23:33;;;;;;;26.80;18.15;;;;;;;4.08;61.18;99800.09;5034812;28;20036;-77
2021/01/28 14:29:23;;;;;;;41.47;22.77;;;;;;;3.81;60.93;99801.06;5034940;28;20579;-78
2021/01/28 14:32:07;;;;;;;27.65;18.17;;;;;;;3.93;60.15;99800.16;5034705;28;20025;-77
2021/01/28 14:35:09;;;;;;;48.05;24.38;;;;;;;3.90;60.67;99803.50;5016759;28;20033;-77
2021/01/28 14:37:35;;;;;;;42.75;21.13;;;;;;;3.99;60.99;99800.97;5016772;28;20088;-78
2021/01/28 14:40:25;;;;;;;45.05;23.02;;;;;;;3.93;61.47;99800.16;5017060;28;20052;-78